sensor_id;sensor_type;location;lat;lon;timestamp;pressure;altitude;pressure_sealevel;temperature;humidity
14800;BME280;7491;57.750;11.970;2023-03-13T00:01:45;76063.78;;;-142.11;100.00
14800;BME280;7491;57.750;11.970;2023-03-13T00:04:14;76076.00;;;-142.11;100.00
14800;BME280;7491;57.750;11.970;2023-03-13T00:06:40;76061.75;;;-142.11;100.00
14800;BME280;7491;57.750;11.970;2023-03-13T00:09:09;76061.75;;;-142.11;100.00
14800;BME280;7491;57.750;11.970;2023-03-13T00:11:36;76035.25;;;-142.11;100.00
14800;BME280;7491;57.750;11.970;2023-03-13T00:14:04;76031.16;;;-142.11;100.00
14800;BME280;7491;57.750;11.970;2023-03-13T00:16:32;76025.06;;;-142.11;100.00
14800;BME280;7491;57.750;11.970;2023-03-13T00:19:03;76020.97;;;-142.11;100.00
14800;BME280;7491;57.750;11.970;2023-03-13T00:21:32;76006.72;;;-142.11;100.00
14800;BME280;7491;57.750;11.970;2023-03-13T00:23:59;75996.50;;;-142.11;100.00
14800;BME280;7491;57.750;11.970;2023-03-13T00:26:27;75996.50;;;-142.11;100.00
14800;BME280;7491;57.750;11.970;2023-03-13T00:28:54;75986.31;;;-142.11;100.00
14800;BME280;7491;57.750;11.970;2023-03-13T00:31:23;75992.44;;;-142.11;100.00
14800;BME280;7491;57.750;11.970;2023-03-13T00:33:52;75976.13;;;-142.11;100.00
14800;BME280;7491;57.750;11.970;2023-03-13T00:36:20;75965.94;;;-142.11;100.00
14800;BME280;7491;57.750;11.970;2023-03-13T00:38:49;75963.91;;;-142.11;100.00
14800;BME280;7491;57.750;11.970;2023-03-13T00:41:17;75947.59;;;-142.11;100.00
14800;BME280;7491;57.750;11.970;2023-03-13T00:43:45;75957.78;;;-142.11;100.00
14800;BME280;7491;57.750;11.970;2023-03-13T00:46:13;75941.47;;;-142.11;100.00
14800;BME280;7491;57.750;11.970;2023-03-13T00:48:40;75947.59;;;-142.11;100.00
14800;BME280;7491;57.750;11.970;2023-03-13T00:51:08;75910.91;;;-142.11;100.00
14800;BME280;7491;57.750;11.970;2023-03-13T00:53:35;75910.91;;;-142.11;100.00
14800;BME280;7491;57.750;11.970;2023-03-13T00:56:06;75912.94;;;-142.11;100.00
14800;BME280;7491;57.750;11.970;2023-03-13T00:58:34;75912.94;;;-142.11;100.00
14800;BME280;7491;57.750;11.970;2023-03-13T01:01:09;75919.06;;;-142.11;100.00
14800;BME280;7491;57.750;11.970;2023-03-13T01:03:36;75914.97;;;-142.11;100.00
14800;BME280;7491;57.750;11.970;2023-03-13T01:06:07;75910.91;;;-142.11;100.00
14800;BME280;7491;57.750;11.970;2023-03-13T01:08:34;75908.88;;;-142.11;100.00
14800;BME280;7491;57.750;11.970;2023-03-13T01:11:05;75906.81;;;-142.11;100.00
14800;BME280;7491;57.750;11.970;2023-03-13T01:13:32;75910.91;;;-142.11;100.00
14800;BME280;7491;57.750;11.970;2023-03-13T01:16:01;75892.56;;;-142.11;100.00
14800;BME280;7491;57.750;11.970;2023-03-13T01:18:28;75880.31;;;-142.11;100.00
14800;BME280;7491;57.750;11.970;2023-03-13T01:20:55;75878.28;;;-142.11;100.00
14800;BME280;7491;57.750;11.970;2023-03-13T01:23:23;75886.44;;;-142.11;100.00
14800;BME280;7491;57.750;11.970;2023-03-13T01:25:49;75880.31;;;-142.11;100.00
14800;BME280;7491;57.750;11.970;2023-03-13T01:28:18;75874.22;;;-142.11;100.00
14800;BME280;7491;57.750;11.970;2023-03-13T01:30:45;75866.06;;;-142.11;100.00
14800;BME280;7491;57.750;11.970;2023-03-13T01:33:11;75853.81;;;-142.11;100.00
14800;BME280;7491;57.750;11.970;2023-03-13T01:35:38;75845.69;;;-142.11;100.00
14800;BME280;7491;57.750;11.970;2023-03-13T01:38:05;75837.53;;;-142.11;100.00
14800;BME280;7491;57.750;11.970;2023-03-13T01:40:38;75835.47;;;-142.11;100.00
14800;BME280;7491;57.750;11.970;2023-03-13T01:43:16;75833.44;;;-142.11;100.00
14800;BME280;7491;57.750;11.970;2023-03-13T01:46:00;75827.34;;;-142.11;100.00
14800;BME280;7491;57.750;11.970;2023-03-13T01:48:36;75823.25;;;-142.11;100.00
14800;BME280;7491;57.750;11.970;2023-03-13T01:51:07;75823.25;;;-142.11;100.00
14800;BME280;7491;57.750;11.970;2023-03-13T01:53:38;75811.03;;;-142.11;100.00
14800;BME280;7491;57.750;11.970;2023-03-13T01:56:09;75806.94;;;-142.11;100.00
14800;BME280;7491;57.750;11.970;2023-03-13T01:58:37;75798.78;;;-142.11;100.00
14800;BME280;7491;57.750;11.970;2023-03-13T02:01:05;75788.59;;;-142.11;100.00
14800;BME280;7491;57.750;11.970;2023-03-13T02:03:33;75784.53;;;-142.11;100.00
14800;BME280;7491;57.750;11.970;2023-03-13T02:06:01;75780.44;;;-142.11;100.00
14800;BME280;7491;57.750;11.970;2023-03-13T02:08:32;75792.69;;;-142.11;100.00
14800;BME280;7491;57.750;11.970;2023-03-13T02:11:04;75772.28;;;-142.11;100.00
14800;BME280;7491;57.750;11.970;2023-03-13T02:13:33;75766.19;;;-142.11;100.00
14800;BME280;7491;57.750;11.970;2023-03-13T02:16:00;75756.00;;;-142.11;100.00
14800;BME280;7491;57.750;11.970;2023-03-13T02:18:29;75758.03;;;-142.11;100.00
14800;BME280;7491;57.750;11.970;2023-03-13T02:21:00;75745.81;;;-142.11;100.00
14800;BME280;7491;57.750;11.970;2023-03-13T02:23:33;75768.22;;;-142.11;100.00
14800;BME280;7491;57.750;11.970;2023-03-13T02:26:06;75741.72;;;-142.11;100.00
14800;BME280;7491;57.750;11.970;2023-03-13T02:28:34;75727.44;;;-142.11;100.00
14800;BME280;7491;57.750;11.970;2023-03-13T02:31:04;75721.34;;;-142.11;100.00
14800;BME280;7491;57.750;11.970;2023-03-13T02:33:34;75713.19;;;-142.11;100.00
14800;BME280;7491;57.750;11.970;2023-03-13T02:36:03;75707.06;;;-142.11;100.00
14800;BME280;7491;57.750;11.970;2023-03-13T02:38:33;75692.81;;;-142.11;100.00
14800;BME280;7491;57.750;11.970;2023-03-13T02:41:01;75686.69;;;-142.11;100.00
14800;BME280;7491;57.750;11.970;2023-03-13T02:43:34;75696.88;;;-142.11;100.00
14800;BME280;7491;57.750;11.970;2023-03-13T02:46:07;75670.38;;;-142.11;100.00
14800;BME280;7491;57.750;11.970;2023-03-13T02:48:36;75676.50;;;-142.11;100.00
14800;BME280;7491;57.750;11.970;2023-03-13T02:51:06;75662.22;;;-142.11;100.00
14800;BME280;7491;57.750;11.970;2023-03-13T02:53:35;75647.97;;;-142.11;100.00
14800;BME280;7491;57.750;11.970;2023-03-13T02:56:03;75652.03;;;-142.11;100.00
14800;BME280;7491;57.750;11.970;2023-03-13T02:58:37;75625.53;;;-142.11;100.00
14800;BME280;7491;57.750;11.970;2023-03-13T03:01:05;75615.34;;;-142.11;100.00
14800;BME280;7491;57.750;11.970;2023-03-13T03:03:32;75599.03;;;-142.11;100.00
14800;BME280;7491;57.750;11.970;2023-03-13T03:06:00;75597.00;;;-142.11;100.00
14800;BME280;7491;57.750;11.970;2023-03-13T03:08:27;75590.91;;;-142.11;100.00
14800;BME280;7491;57.750;11.970;2023-03-13T03:10:54;75580.69;;;-142.11;100.00
14800;BME280;7491;57.750;11.970;2023-03-13T03:13:21;75590.91;;;-142.11;100.00
14800;BME280;7491;57.750;11.970;2023-03-13T03:15:49;75570.50;;;-142.11;100.00
14800;BME280;7491;57.750;11.970;2023-03-13T03:18:16;75560.31;;;-142.11;100.00
14800;BME280;7491;57.750;11.970;2023-03-13T03:20:43;75556.25;;;-142.11;100.00
14800;BME280;7491;57.750;11.970;2023-03-13T03:23:10;75552.16;;;-142.11;100.00
14800;BME280;7491;57.750;11.970;2023-03-13T03:25:37;75546.06;;;-142.11;100.00
14800;BME280;7491;57.750;11.970;2023-03-13T03:28:04;75541.97;;;-142.11;100.00
14800;BME280;7491;57.750;11.970;2023-03-13T03:30:31;75521.59;;;-142.11;100.00
14800;BME280;7491;57.750;11.970;2023-03-13T03:33:01;75517.53;;;-142.11;100.00
14800;BME280;7491;57.750;11.970;2023-03-13T03:35:28;75513.44;;;-142.11;100.00
14800;BME280;7491;57.750;11.970;2023-03-13T03:37:55;75501.22;;;-142.11;100.00
14800;BME280;7491;57.750;11.970;2023-03-13T03:40:22;75519.56;;;-142.11;100.00
14800;BME280;7491;57.750;11.970;2023-03-13T03:42:49;75489.00;;;-142.11;100.00
14800;BME280;7491;57.750;11.970;2023-03-13T03:45:16;75489.00;;;-142.11;100.00
14800;BME280;7491;57.750;11.970;2023-03-13T03:47:42;75484.91;;;-142.11;100.00
14800;BME280;7491;57.750;11.970;2023-03-13T03:50:11;75476.75;;;-142.11;100.00
14800;BME280;7491;57.750;11.970;2023-03-13T03:52:38;75476.75;;;-142.11;100.00
14800;BME280;7491;57.750;11.970;2023-03-13T03:55:05;75468.59;;;-142.11;100.00
14800;BME280;7491;57.750;11.970;2023-03-13T03:57:32;75474.72;;;-142.11;100.00
14800;BME280;7491;57.750;11.970;2023-03-13T03:59:59;75460.44;;;-142.11;100.00
14800;BME280;7491;57.750;11.970;2023-03-13T04:02:25;75458.41;;;-142.11;100.00
14800;BME280;7491;57.750;11.970;2023-03-13T04:04:52;75450.25;;;-142.11;100.00
14800;BME280;7491;57.750;11.970;2023-03-13T04:07:20;75456.38;;;-142.11;100.00
14800;BME280;7491;57.750;11.970;2023-03-13T04:09:47;75446.19;;;-142.11;100.00
14800;BME280;7491;57.750;11.970;2023-03-13T04:12:14;75446.19;;;-142.11;100.00
14800;BME280;7491;57.750;11.970;2023-03-13T04:14:41;75433.97;;;-142.11;100.00
14800;BME280;7491;57.750;11.970;2023-03-13T04:17:08;75429.88;;;-142.11;100.00
14800;BME280;7491;57.750;11.970;2023-03-13T04:19:34;75419.69;;;-142.11;100.00
14800;BME280;7491;57.750;11.970;2023-03-13T04:22:01;75421.72;;;-142.11;100.00
14800;BME280;7491;57.750;11.970;2023-03-13T04:24:29;75409.50;;;-142.11;100.00
14800;BME280;7491;57.750;11.970;2023-03-13T04:26:56;75401.34;;;-142.11;100.00
14800;BME280;7491;57.750;11.970;2023-03-13T04:29:23;75409.50;;;-142.11;100.00
14800;BME280;7491;57.750;11.970;2023-03-13T04:31:50;75415.63;;;-142.11;100.00
14800;BME280;7491;57.750;11.970;2023-03-13T04:34:17;75391.16;;;-142.11;100.00
14800;BME280;7491;57.750;11.970;2023-03-13T04:36:44;75397.28;;;-142.11;100.00
14800;BME280;7491;57.750;11.970;2023-03-13T04:39:10;75368.75;;;-142.11;100.00
14800;BME280;7491;57.750;11.970;2023-03-13T04:41:39;75374.84;;;-142.11;100.00
14800;BME280;7491;57.750;11.970;2023-03-13T04:44:06;75352.44;;;-142.11;100.00
14800;BME280;7491;57.750;11.970;2023-03-13T04:46:34;75342.25;;;-142.11;100.00
14800;BME280;7491;57.750;11.970;2023-03-13T04:49:01;75344.28;;;-142.11;100.00
14800;BME280;7491;57.750;11.970;2023-03-13T04:51:28;75334.09;;;-142.11;100.00
14800;BME280;7491;57.750;11.970;2023-03-13T04:53:54;75330.03;;;-142.11;100.00
14800;BME280;7491;57.750;11.970;2023-03-13T04:56:23;75334.09;;;-142.11;100.00
14800;BME280;7491;57.750;11.970;2023-03-13T04:58:52;75327.97;;;-142.11;100.00
14800;BME280;7491;57.750;11.970;2023-03-13T05:01:19;75307.59;;;-142.11;100.00
14800;BME280;7491;57.750;11.970;2023-03-13T05:03:45;75301.50;;;-142.11;100.00
14800;BME280;7491;57.750;11.970;2023-03-13T05:06:12;75299.44;;;-142.11;100.00
14800;BME280;7491;57.750;11.970;2023-03-13T05:08:39;75295.38;;;-142.11;100.00
14800;BME280;7491;57.750;11.970;2023-03-13T05:11:06;75277.03;;;-142.11;100.00
14800;BME280;7491;57.750;11.970;2023-03-13T05:13:33;75272.97;;;-142.11;100.00
14800;BME280;7491;57.750;11.970;2023-03-13T05:16:01;75272.97;;;-142.11;100.00
14800;BME280;7491;57.750;11.970;2023-03-13T05:18:29;75262.75;;;-142.11;100.00
14800;BME280;7491;57.750;11.970;2023-03-13T05:20:56;75254.63;;;-142.11;100.00
14800;BME280;7491;57.750;11.970;2023-03-13T05:23:22;75262.75;;;-142.11;100.00
14800;BME280;7491;57.750;11.970;2023-03-13T05:25:49;75252.56;;;-142.11;100.00
14800;BME280;7491;57.750;11.970;2023-03-13T05:28:16;75244.44;;;-142.11;100.00
14800;BME280;7491;57.750;11.970;2023-03-13T05:30:43;75246.47;;;-142.11;100.00
14800;BME280;7491;57.750;11.970;2023-03-13T05:33:12;75230.16;;;-142.11;100.00
14800;BME280;7491;57.750;11.970;2023-03-13T05:35:39;75224.03;;;-142.11;100.00
14800;BME280;7491;57.750;11.970;2023-03-13T05:38:05;75226.09;;;-142.11;100.00
14800;BME280;7491;57.750;11.970;2023-03-13T05:40:32;75230.16;;;-142.11;100.00
14800;BME280;7491;57.750;11.970;2023-03-13T05:42:59;75211.81;;;-142.11;100.00
14800;BME280;7491;57.750;11.970;2023-03-13T05:45:26;75197.56;;;-142.11;100.00
14800;BME280;7491;57.750;11.970;2023-03-13T05:47:53;75185.31;;;-142.11;100.00
14800;BME280;7491;57.750;11.970;2023-03-13T05:50:21;75179.22;;;-142.11;100.00
14800;BME280;7491;57.750;11.970;2023-03-13T05:52:48;75173.09;;;-142.11;100.00
14800;BME280;7491;57.750;11.970;2023-03-13T05:55:16;75173.09;;;-142.11;100.00
14800;BME280;7491;57.750;11.970;2023-03-13T05:57:44;75162.91;;;-142.11;100.00
14800;BME280;7491;57.750;11.970;2023-03-13T06:00:12;75150.69;;;-142.11;100.00
14800;BME280;7491;57.750;11.970;2023-03-13T06:02:40;75138.44;;;-142.11;100.00
14800;BME280;7491;57.750;11.970;2023-03-13T06:05:07;75140.50;;;-142.11;100.00
14800;BME280;7491;57.750;11.970;2023-03-13T06:07:36;75111.97;;;-142.11;100.00
14800;BME280;7491;57.750;11.970;2023-03-13T06:10:04;75120.13;;;-142.11;100.00
14800;BME280;7491;57.750;11.970;2023-03-13T06:12:31;75101.78;;;-142.11;100.00
14800;BME280;7491;57.750;11.970;2023-03-13T06:14:57;75107.88;;;-142.11;100.00
14800;BME280;7491;57.750;11.970;2023-03-13T06:17:24;75083.44;;;-142.11;100.00
14800;BME280;7491;57.750;11.970;2023-03-13T06:19:51;75083.44;;;-142.11;100.00
14800;BME280;7491;57.750;11.970;2023-03-13T06:22:18;75087.50;;;-142.11;100.00
14800;BME280;7491;57.750;11.970;2023-03-13T06:24:46;75058.97;;;-142.11;100.00
14800;BME280;7491;57.750;11.970;2023-03-13T06:27:14;75056.94;;;-142.11;100.00
14800;BME280;7491;57.750;11.970;2023-03-13T06:29:41;75061.00;;;-142.11;100.00
14800;BME280;7491;57.750;11.970;2023-03-13T06:32:07;75052.88;;;-142.11;100.00
14800;BME280;7491;57.750;11.970;2023-03-13T06:34:35;75034.53;;;-142.11;100.00
14800;BME280;7491;57.750;11.970;2023-03-13T06:37:02;75032.47;;;-142.11;100.00
14800;BME280;7491;57.750;11.970;2023-03-13T06:39:43;75036.56;;;-142.11;100.00
14800;BME280;7491;57.750;11.970;2023-03-13T06:42:11;75016.19;;;-142.11;100.00
14800;BME280;7491;57.750;11.970;2023-03-13T06:44:38;75008.03;;;-142.11;100.00
14800;BME280;7491;57.750;11.970;2023-03-13T06:47:06;75008.03;;;-142.11;100.00
14800;BME280;7491;57.750;11.970;2023-03-13T06:49:33;74995.81;;;-142.11;100.00
14800;BME280;7491;57.750;11.970;2023-03-13T06:51:59;74977.47;;;-142.11;100.00
14800;BME280;7491;57.750;11.970;2023-03-13T06:54:26;74977.47;;;-142.11;100.00
14800;BME280;7491;57.750;11.970;2023-03-13T06:56:53;74967.28;;;-142.11;100.00
14800;BME280;7491;57.750;11.970;2023-03-13T06:59:21;74955.03;;;-142.11;100.00
14800;BME280;7491;57.750;11.970;2023-03-13T07:01:48;74948.94;;;-142.11;100.00
14800;BME280;7491;57.750;11.970;2023-03-13T07:04:15;74955.03;;;-142.11;100.00
14800;BME280;7491;57.750;11.970;2023-03-13T07:06:42;74924.47;;;-142.11;100.00
14800;BME280;7491;57.750;11.970;2023-03-13T07:09:09;74928.56;;;-142.11;100.00
14800;BME280;7491;57.750;11.970;2023-03-13T07:11:36;74912.25;;;-142.11;100.00
14800;BME280;7491;57.750;11.970;2023-03-13T07:14:03;74902.06;;;-142.11;100.00
14800;BME280;7491;57.750;11.970;2023-03-13T07:16:31;74898.00;;;-142.11;100.00
14800;BME280;7491;57.750;11.970;2023-03-13T07:18:58;74877.63;;;-142.11;100.00
14800;BME280;7491;57.750;11.970;2023-03-13T07:21:25;74867.44;;;-142.11;100.00
14800;BME280;7491;57.750;11.970;2023-03-13T07:23:52;74871.50;;;-142.11;100.00
14800;BME280;7491;57.750;11.970;2023-03-13T07:26:18;74847.03;;;-142.11;100.00
14800;BME280;7491;57.750;11.970;2023-03-13T07:28:45;74830.75;;;-142.11;100.00
14800;BME280;7491;57.750;11.970;2023-03-13T07:31:14;74818.53;;;-142.11;100.00
14800;BME280;7491;57.750;11.970;2023-03-13T07:33:43;74804.25;;;-142.11;100.00
14800;BME280;7491;57.750;11.970;2023-03-13T07:36:11;74800.19;;;-142.11;100.00
14800;BME280;7491;57.750;11.970;2023-03-13T07:38:38;74779.81;;;-142.11;100.00
14800;BME280;7491;57.750;11.970;2023-03-13T07:41:05;74773.69;;;-142.11;100.00
14800;BME280;7491;57.750;11.970;2023-03-13T07:43:32;74763.50;;;-142.11;100.00
14800;BME280;7491;57.750;11.970;2023-03-13T07:46:00;74751.28;;;-142.11;100.00
14800;BME280;7491;57.750;11.970;2023-03-13T07:48:29;74743.13;;;-142.11;100.00
14800;BME280;7491;57.750;11.970;2023-03-13T07:50:58;74753.31;;;-142.11;100.00
14800;BME280;7491;57.750;11.970;2023-03-13T07:53:25;74726.81;;;-142.11;100.00
14800;BME280;7491;57.750;11.970;2023-03-13T07:55:54;74712.56;;;-142.11;100.00
14800;BME280;7491;57.750;11.970;2023-03-13T07:58:21;74702.38;;;-142.11;100.00
14800;BME280;7491;57.750;11.970;2023-03-13T08:00:49;74700.34;;;-142.11;100.00
14800;BME280;7491;57.750;11.970;2023-03-13T08:03:16;74688.09;;;-142.11;100.00
14800;BME280;7491;57.750;11.970;2023-03-13T08:05:42;74677.91;;;-142.11;100.00
14800;BME280;7491;57.750;11.970;2023-03-13T08:08:11;74673.84;;;-142.11;100.00
14800;BME280;7491;57.750;11.970;2023-03-13T08:10:37;74655.50;;;-142.11;100.00
14800;BME280;7491;57.750;11.970;2023-03-13T08:13:04;74653.47;;;-142.11;100.00
14800;BME280;7491;57.750;11.970;2023-03-13T08:15:31;74641.25;;;-142.11;100.00
14800;BME280;7491;57.750;11.970;2023-03-13T08:17:58;74631.06;;;-142.11;100.00
14800;BME280;7491;57.750;11.970;2023-03-13T08:20:24;74618.84;;;-142.11;100.00
14800;BME280;7491;57.750;11.970;2023-03-13T08:22:51;74612.72;;;-142.11;100.00
14800;BME280;7491;57.750;11.970;2023-03-13T08:25:21;74606.59;;;-142.11;100.00
14800;BME280;7491;57.750;11.970;2023-03-13T08:27:48;74584.19;;;-142.11;100.00
14800;BME280;7491;57.750;11.970;2023-03-13T08:30:15;74582.16;;;-142.11;100.00
14800;BME280;7491;57.750;11.970;2023-03-13T08:32:42;74565.84;;;-142.11;100.00
14800;BME280;7491;57.750;11.970;2023-03-13T08:35:09;74565.84;;;-142.11;100.00
14800;BME280;7491;57.750;11.970;2023-03-13T08:37:35;74551.59;;;-142.11;100.00
14800;BME280;7491;57.750;11.970;2023-03-13T08:40:03;74537.31;;;-142.11;100.00
14800;BME280;7491;57.750;11.970;2023-03-13T08:42:36;74525.09;;;-142.11;100.00
14800;BME280;7491;57.750;11.970;2023-03-13T08:45:05;74514.91;;;-142.11;100.00
14800;BME280;7491;57.750;11.970;2023-03-13T08:47:32;74498.63;;;-142.11;100.00
14800;BME280;7491;57.750;11.970;2023-03-13T08:49:59;74478.25;;;-142.11;100.00
14800;BME280;7491;57.750;11.970;2023-03-13T08:52:26;74480.28;;;-142.11;100.00
14800;BME280;7491;57.750;11.970;2023-03-13T08:54:53;74472.13;;;-142.11;100.00
14800;BME280;7491;57.750;11.970;2023-03-13T08:57:19;74459.91;;;-142.11;100.00
14800;BME280;7491;57.750;11.970;2023-03-13T08:59:47;74461.94;;;-142.11;100.00
14800;BME280;7491;57.750;11.970;2023-03-13T09:02:15;74451.75;;;-142.11;100.00
14800;BME280;7491;57.750;11.970;2023-03-13T09:04:44;74441.56;;;-142.11;100.00
14800;BME280;7491;57.750;11.970;2023-03-13T09:07:11;74443.59;;;-142.11;100.00
14800;BME280;7491;57.750;11.970;2023-03-13T09:09:38;74425.25;;;-142.11;100.00
14800;BME280;7491;57.750;11.970;2023-03-13T09:12:06;74415.06;;;-142.11;100.00
14800;BME280;7491;57.750;11.970;2023-03-13T09:14:33;74411.00;;;-142.11;100.00
14800;BME280;7491;57.750;11.970;2023-03-13T09:17:01;74400.81;;;-142.11;100.00
14800;BME280;7491;57.750;11.970;2023-03-13T09:19:28;74388.59;;;-142.11;100.00
14800;BME280;7491;57.750;11.970;2023-03-13T09:21:55;74380.44;;;-142.11;100.00
14800;BME280;7491;57.750;11.970;2023-03-13T09:24:22;74376.38;;;-142.11;100.00
14800;BME280;7491;57.750;11.970;2023-03-13T09:26:49;74353.94;;;-142.11;100.00
14800;BME280;7491;57.750;11.970;2023-03-13T09:29:16;74329.50;;;-142.11;100.00
14800;BME280;7491;57.750;11.970;2023-03-13T09:31:42;74341.72;;;-142.11;100.00
14800;BME280;7491;57.750;11.970;2023-03-13T09:34:11;74317.28;;;-142.11;100.00
14800;BME280;7491;57.750;11.970;2023-03-13T09:36:37;74319.31;;;-142.11;100.00
14800;BME280;7491;57.750;11.970;2023-03-13T09:39:04;74313.22;;;-142.11;100.00
14800;BME280;7491;57.750;11.970;2023-03-13T09:41:33;74294.88;;;-142.11;100.00
14800;BME280;7491;57.750;11.970;2023-03-13T09:44:07;74294.88;;;-142.11;100.00
14800;BME280;7491;57.750;11.970;2023-03-13T09:46:38;74276.53;;;-142.11;100.00
14800;BME280;7491;57.750;11.970;2023-03-13T09:49:13;74280.59;;;-142.11;100.00
14800;BME280;7491;57.750;11.970;2023-03-13T09:51:42;74262.28;;;-142.11;100.00
14800;BME280;7491;57.750;11.970;2023-03-13T09:54:19;74258.19;;;-142.11;100.00
14800;BME280;7491;57.750;11.970;2023-03-13T09:56:52;74254.13;;;-142.11;100.00
14800;BME280;7491;57.750;11.970;2023-03-13T09:59:27;74235.78;;;-142.11;100.00
14800;BME280;7491;57.750;11.970;2023-03-13T10:01:56;74227.63;;;-142.11;100.00
14800;BME280;7491;57.750;11.970;2023-03-13T10:04:31;74209.28;;;-142.11;100.00
14800;BME280;7491;57.750;11.970;2023-03-13T10:06:59;74215.41;;;-142.11;100.00
14800;BME280;7491;57.750;11.970;2023-03-13T10:09:30;74195.03;;;-142.11;100.00
14800;BME280;7491;57.750;11.970;2023-03-13T10:12:03;74188.94;;;-142.11;100.00
14800;BME280;7491;57.750;11.970;2023-03-13T10:14:38;74176.69;;;-142.11;100.00
14800;BME280;7491;57.750;11.970;2023-03-13T10:17:14;74176.69;;;-142.11;100.00
14800;BME280;7491;57.750;11.970;2023-03-13T10:19:54;74164.47;;;-142.11;100.00
14800;BME280;7491;57.750;11.970;2023-03-13T10:22:24;74150.22;;;-142.11;100.00
14800;BME280;7491;57.750;11.970;2023-03-13T10:24:57;74140.03;;;-142.11;100.00
14800;BME280;7491;57.750;11.970;2023-03-13T10:27:24;74129.84;;;-142.11;100.00
14800;BME280;7491;57.750;11.970;2023-03-13T10:29:51;74121.69;;;-142.11;100.00
14800;BME280;7491;57.750;11.970;2023-03-13T10:32:18;74117.63;;;-142.11;100.00
14800;BME280;7491;57.750;11.970;2023-03-13T10:34:52;74115.59;;;-142.11;100.00
14800;BME280;7491;57.750;11.970;2023-03-13T10:37:21;74111.50;;;-142.11;100.00
14800;BME280;7491;57.750;11.970;2023-03-13T10:39:48;74103.34;;;-142.11;100.00
14800;BME280;7491;57.750;11.970;2023-03-13T10:42:22;74097.25;;;-142.11;100.00
14800;BME280;7491;57.750;11.970;2023-03-13T10:44:57;74083.00;;;-142.11;100.00
14800;BME280;7491;57.750;11.970;2023-03-13T10:47:24;74080.94;;;-142.11;100.00
14800;BME280;7491;57.750;11.970;2023-03-13T10:49:56;74072.81;;;-142.11;100.00
14800;BME280;7491;57.750;11.970;2023-03-13T10:52:29;74064.66;;;-142.11;100.00
14800;BME280;7491;57.750;11.970;2023-03-13T10:54:59;74068.72;;;-142.11;100.00
14800;BME280;7491;57.750;11.970;2023-03-13T10:57:29;74052.44;;;-142.11;100.00
14800;BME280;7491;57.750;11.970;2023-03-13T10:59:56;74058.53;;;-142.11;100.00
14800;BME280;7491;57.750;11.970;2023-03-13T11:02:27;74052.44;;;-142.11;100.00
14800;BME280;7491;57.750;11.970;2023-03-13T11:04:58;74044.28;;;-142.11;100.00
14800;BME280;7491;57.750;11.970;2023-03-13T11:07:28;74025.94;;;-142.11;100.00
14800;BME280;7491;57.750;11.970;2023-03-13T11:10:01;73995.38;;;-142.11;100.00
14800;BME280;7491;57.750;11.970;2023-03-13T11:12:33;73979.09;;;-142.11;100.00
14800;BME280;7491;57.750;11.970;2023-03-13T11:15:17;73966.88;;;-142.11;100.00
14800;BME280;7491;57.750;11.970;2023-03-13T11:17:47;73975.00;;;-142.11;100.00
14800;BME280;7491;57.750;11.970;2023-03-13T11:20:24;73956.69;;;-142.11;100.00
14800;BME280;7491;57.750;11.970;2023-03-13T11:22:56;73954.66;;;-142.11;100.00
14800;BME280;7491;57.750;11.970;2023-03-13T11:25:30;73954.66;;;-142.11;100.00
14800;BME280;7491;57.750;11.970;2023-03-13T11:28:18;73932.22;;;-142.11;100.00
14800;BME280;7491;57.750;11.970;2023-03-13T11:33:37;73905.75;;;-142.11;100.00
14800;BME280;7491;57.750;11.970;2023-03-13T11:36:13;73905.75;;;-142.11;100.00
14800;BME280;7491;57.750;11.970;2023-03-13T11:38:44;73913.91;;;-142.11;100.00
14800;BME280;7491;57.750;11.970;2023-03-13T11:41:29;73877.22;;;-142.11;100.00
14800;BME280;7491;57.750;11.970;2023-03-13T11:44:07;73869.09;;;-142.11;100.00
14800;BME280;7491;57.750;11.970;2023-03-13T11:46:46;73869.09;;;-142.11;100.00
14800;BME280;7491;57.750;11.970;2023-03-13T11:49:29;73860.94;;;-142.11;100.00
14800;BME280;7491;57.750;11.970;2023-03-13T11:52:11;73856.84;;;-142.11;100.00
14800;BME280;7491;57.750;11.970;2023-03-13T11:54:55;73844.63;;;-142.11;100.00
14800;BME280;7491;57.750;11.970;2023-03-13T11:57:27;73822.22;;;-142.11;100.00
14800;BME280;7491;57.750;11.970;2023-03-13T12:00:12;73822.22;;;-142.11;100.00
14800;BME280;7491;57.750;11.970;2023-03-13T12:02:44;73826.31;;;-142.11;100.00
14800;BME280;7491;57.750;11.970;2023-03-13T12:05:17;73805.94;;;-142.11;100.00
14800;BME280;7491;57.750;11.970;2023-03-13T12:07:49;73807.97;;;-142.11;100.00
14800;BME280;7491;57.750;11.970;2023-03-13T12:10:21;73812.03;;;-142.11;100.00
14800;BME280;7491;57.750;11.970;2023-03-13T12:12:51;73803.91;;;-142.11;100.00
14800;BME280;7491;57.750;11.970;2023-03-13T12:15:24;73801.84;;;-142.11;100.00
14800;BME280;7491;57.750;11.970;2023-03-13T12:17:56;73787.59;;;-142.11;100.00
14800;BME280;7491;57.750;11.970;2023-03-13T12:20:27;73791.66;;;-142.11;100.00
14800;BME280;7491;57.750;11.970;2023-03-13T12:23:15;73787.59;;;-142.11;100.00
14800;BME280;7491;57.750;11.970;2023-03-13T12:25:46;73765.19;;;-142.11;100.00
14800;BME280;7491;57.750;11.970;2023-03-13T12:28:21;73763.16;;;-142.11;100.00
14800;BME280;7491;57.750;11.970;2023-03-13T12:30:53;73763.16;;;-142.11;100.00
14800;BME280;7491;57.750;11.970;2023-03-13T12:33:25;73728.53;;;-142.11;100.00
14800;BME280;7491;57.750;11.970;2023-03-13T12:36:01;73734.63;;;-142.11;100.00
14800;BME280;7491;57.750;11.970;2023-03-13T12:38:35;73714.25;;;-142.11;100.00
14800;BME280;7491;57.750;11.970;2023-03-13T12:41:13;73704.06;;;-142.11;100.00
14800;BME280;7491;57.750;11.970;2023-03-13T12:43:43;73693.88;;;-142.11;100.00